Time;durP1;ratioP1;P1;durP2;ratioP2;P2;SDS_P1;SDS_P2;PMS_P1;PMS_P2;Temp;Humidity;BMP_temperature;BMP_pressure;BME280_temperature;BME280_humidity;BME280_pressure;Samples;Min_cycle;Max_cycle;Signal;HPM_P1;HPM_P2
2021/09/07 00:02:05;;;;;;;5.15;3.60;;;;;;;;;;4465727;32;20280;-53
2021/09/07 00:04:31;;;;;;;6.40;3.70;;;;;;;;;;4465889;32;20311;-52
2021/09/07 00:06:57;;;;;;;5.82;3.87;;;;;;;;;;4465921;32;20291;-53
2021/09/07 00:09:23;;;;;;;8.52;4.30;;;;;;;;;;4466142;32;20228;-53
2021/09/07 00:11:49;;;;;;;7.30;4.43;;;;;;;;;;4464319;32;20216;-53
2021/09/07 00:14:14;;;;;;;5.72;3.45;;;;;;;;;;4464629;32;20220;-53
2021/09/07 00:16:40;;;;;;;6.28;3.62;;;;;;;;;;4465983;32;20739;-53
2021/09/07 00:19:05;;;;;;;5.62;4.18;;;;;;;;;;4465657;32;20251;-53
2021/09/07 00:21:30;;;;;;;4.80;3.83;;;;;;;;;;4466423;32;20343;-52
2021/09/07 00:23:56;;;;;;;5.65;3.37;;;;;;;;;;4466016;32;20475;-52
2021/09/07 00:26:21;;;;;;;7.82;4.37;;;;;;;;;;4466076;32;20378;-52
2021/09/07 00:28:47;;;;;;;8.60;4.18;;;;;;;;;;4464758;32;20238;-53
2021/09/07 00:31:12;;;;;;;5.65;3.75;;;;;;;;;;4466462;32;20263;-53
2021/09/07 00:33:38;;;;;;;5.78;3.78;;;;;;;;;;4457176;32;20307;-53
2021/09/07 00:36:03;;;;;;;8.43;3.80;;;;;;;;;;4466104;32;20623;-53
2021/09/07 00:38:29;;;;;;;5.37;3.33;;;;;;;;;;4465926;32;20220;-53
2021/09/07 00:40:54;;;;;;;5.90;3.10;;;;;;;;;;4465800;32;20319;-55
2021/09/07 00:43:20;;;;;;;7.37;3.83;;;;;;;;;;4454517;32;20918;-53
2021/09/07 00:45:46;;;;;;;8.30;3.42;;;;;;;;;;4465117;32;20212;-53
2021/09/07 00:48:11;;;;;;;4.15;3.10;;;;;;;;;;4465132;32;20770;-52
2021/09/07 00:50:37;;;;;;;4.68;3.42;;;;;;;;;;4465735;32;20287;-54
2021/09/07 00:53:03;;;;;;;7.22;3.33;;;;;;;;;;4465584;32;20298;-52
2021/09/07 00:55:29;;;;;;;7.35;3.55;;;;;;;;;;4465663;32;20280;-54
2021/09/07 00:57:56;;;;;;;6.90;3.37;;;;;;;;;;4464639;32;20208;-53
2021/09/07 01:00:22;;;;;;;8.77;3.67;;;;;;;;;;4465339;32;20309;-52
2021/09/07 01:02:47;;;;;;;5.72;3.55;;;;;;;;;;4465252;32;20291;-52
2021/09/07 01:05:13;;;;;;;9.35;4.30;;;;;;;;;;4465102;32;20240;-54
2021/09/07 01:07:39;;;;;;;5.80;3.60;;;;;;;;;;4466018;32;21038;-52
2021/09/07 01:10:06;;;;;;;5.43;3.80;;;;;;;;;;4465115;32;20562;-52
2021/09/07 01:12:33;;;;;;;15.20;10.68;;;;;;;;;;4465393;32;20263;-52
2021/09/07 01:14:58;;;;;;;10.88;7.28;;;;;;;;;;4465346;32;20580;-53
2021/09/07 01:17:24;;;;;;;7.47;5.90;;;;;;;;;;4465583;32;20343;-51
2021/09/07 01:19:50;;;;;;;7.00;4.43;;;;;;;;;;4465151;32;20270;-51
2021/09/07 01:22:21;;;;;;;11.73;4.22;;;;;;;;;;4465054;32;20246;-53
2021/09/07 01:24:48;;;;;;;8.05;3.85;;;;;;;;;;4465375;32;20295;-53
2021/09/07 01:27:13;;;;;;;4.78;3.20;;;;;;;;;;4465631;32;20196;-52
2021/09/07 01:29:41;;;;;;;5.60;3.17;;;;;;;;;;4464309;32;20248;-52
2021/09/07 01:32:09;;;;;;;5.00;3.50;;;;;;;;;;4464251;32;20205;-53
2021/09/07 01:34:35;;;;;;;4.57;3.17;;;;;;;;;;4464433;32;20291;-53
2021/09/07 01:37:00;;;;;;;6.97;3.58;;;;;;;;;;4464384;32;20573;-53
2021/09/07 01:39:26;;;;;;;6.12;3.95;;;;;;;;;;4465110;32;20244;-52
2021/09/07 01:41:52;;;;;;;6.60;3.42;;;;;;;;;;4464676;32;20394;-53
2021/09/07 01:44:18;;;;;;;5.78;4.12;;;;;;;;;;4465220;32;20220;-52
2021/09/07 01:46:44;;;;;;;6.55;3.90;;;;;;;;;;4464739;32;20268;-52
2021/09/07 01:49:10;;;;;;;4.22;3.55;;;;;;;;;;4464849;32;20264;-52
2021/09/07 01:51:40;;;;;;;3.65;3.03;;;;;;;;;;4465096;32;20216;-53
2021/09/07 01:54:07;;;;;;;6.22;3.45;;;;;;;;;;4464959;32;20668;-52
2021/09/07 01:56:33;;;;;;;6.57;3.78;;;;;;;;;;4464261;32;20368;-52
2021/09/07 01:58:59;;;;;;;5.78;3.90;;;;;;;;;;4464105;32;20253;-53
2021/09/07 02:01:24;;;;;;;5.47;3.03;;;;;;;;;;4464585;32;20256;-54
2021/09/07 02:03:50;;;;;;;4.97;3.00;;;;;;;;;;4464566;32;20789;-53
2021/09/07 02:06:15;;;;;;;5.80;2.97;;;;;;;;;;4464694;32;20582;-53
2021/09/07 02:08:41;;;;;;;3.87;2.95;;;;;;;;;;4464219;32;20248;-52
2021/09/07 02:11:07;;;;;;;4.72;3.72;;;;;;;;;;4464783;32;20699;-53
2021/09/07 02:13:32;;;;;;;5.07;3.47;;;;;;;;;;4463385;32;20742;-53
2021/09/07 02:15:58;;;;;;;5.72;3.47;;;;;;;;;;4464191;32;20260;-51
2021/09/07 02:18:23;;;;;;;7.55;3.22;;;;;;;;;;4464584;32;20224;-52
2021/09/07 02:20:49;;;;;;;8.02;3.78;;;;;;;;;;4464289;32;20294;-52
2021/09/07 02:23:14;;;;;;;12.68;3.00;;;;;;;;;;4464387;32;20216;-53
2021/09/07 02:25:40;;;;;;;5.53;3.25;;;;;;;;;;4464290;32;20295;-52
2021/09/07 02:28:05;;;;;;;3.90;3.15;;;;;;;;;;4464193;32;20284;-52
2021/09/07 02:30:31;;;;;;;7.45;3.92;;;;;;;;;;4464300;32;20685;-51
2021/09/07 02:32:56;;;;;;;4.37;3.53;;;;;;;;;;4463445;32;20342;-51
2021/09/07 02:35:22;;;;;;;6.47;4.22;;;;;;;;;;4463126;32;20304;-52
2021/09/07 02:37:48;;;;;;;7.97;3.40;;;;;;;;;;4463637;32;20275;-52
2021/09/07 02:40:14;;;;;;;4.40;2.90;;;;;;;;;;4464066;32;20359;-52
2021/09/07 02:42:39;;;;;;;5.00;3.60;;;;;;;;;;4464018;32;20301;-52
2021/09/07 02:45:05;;;;;;;6.82;3.25;;;;;;;;;;4463201;32;20666;-52
2021/09/07 02:47:30;;;;;;;7.37;4.30;;;;;;;;;;4464323;32;20318;-55
2021/09/07 02:49:56;;;;;;;5.25;2.97;;;;;;;;;;4463829;32;20280;-53
2021/09/07 02:52:21;;;;;;;5.68;3.50;;;;;;;;;;4463496;32;20283;-53
2021/09/07 02:54:47;;;;;;;4.57;2.78;;;;;;;;;;4463375;32;20254;-52
2021/09/07 02:57:12;;;;;;;6.15;3.60;;;;;;;;;;4463752;32;20283;-52
2021/09/07 02:59:38;;;;;;;9.10;4.00;;;;;;;;;;4464121;32;20593;-55
2021/09/07 03:02:03;;;;;;;6.30;3.30;;;;;;;;;;4463488;32;20240;-53
2021/09/07 03:04:29;;;;;;;5.72;3.47;;;;;;;;;;4463813;32;20224;-53
2021/09/07 03:06:54;;;;;;;7.90;3.62;;;;;;;;;;4463706;32;20429;-53
2021/09/07 03:09:20;;;;;;;5.80;3.75;;;;;;;;;;4461885;32;20236;-53
2021/09/07 03:11:46;;;;;;;3.70;2.45;;;;;;;;;;4467751;32;20291;-53
2021/09/07 03:14:11;;;;;;;5.70;3.22;;;;;;;;;;4467373;32;20345;-53
2021/09/07 03:16:37;;;;;;;5.22;3.37;;;;;;;;;;4467338;32;20250;-53
2021/09/07 03:19:03;;;;;;;7.60;3.60;;;;;;;;;;4465434;32;20367;-54
2021/09/07 03:21:29;;;;;;;5.07;3.28;;;;;;;;;;4467454;32;20284;-54
2021/09/07 03:23:55;;;;;;;4.72;3.40;;;;;;;;;;4465572;32;20247;-54
2021/09/07 03:26:21;;;;;;;8.43;4.07;;;;;;;;;;4466810;32;20283;-54
2021/09/07 03:28:46;;;;;;;7.32;4.95;;;;;;;;;;4466669;32;20220;-54
2021/09/07 03:31:12;;;;;;;5.75;3.70;;;;;;;;;;4466139;32;20333;-53
2021/09/07 03:33:37;;;;;;;4.25;2.70;;;;;;;;;;4466347;32;20741;-54
2021/09/07 03:36:04;;;;;;;4.85;3.58;;;;;;;;;;4466882;32;20313;-54
2021/09/07 03:38:30;;;;;;;5.50;3.17;;;;;;;;;;4466863;32;20264;-54
2021/09/07 03:40:55;;;;;;;5.62;3.15;;;;;;;;;;4466611;32;20227;-54
2021/09/07 03:43:21;;;;;;;4.22;3.08;;;;;;;;;;4466329;32;20219;-54
2021/09/07 03:45:46;;;;;;;4.57;3.17;;;;;;;;;;4466981;32;20348;-55
2021/09/07 03:48:12;;;;;;;4.82;3.08;;;;;;;;;;4466125;32;20377;-53
2021/09/07 03:50:37;;;;;;;4.62;3.20;;;;;;;;;;4465902;32;20763;-52
2021/09/07 03:53:03;;;;;;;5.95;3.00;;;;;;;;;;4466362;32;20307;-52
2021/09/07 03:55:28;;;;;;;6.43;3.40;;;;;;;;;;4465185;32;20668;-53
2021/09/07 03:57:54;;;;;;;11.00;3.65;;;;;;;;;;4465710;32;20213;-53
2021/09/07 04:00:19;;;;;;;7.05;5.60;;;;;;;;;;4465017;32;20372;-54
2021/09/07 04:02:45;;;;;;;6.72;4.57;;;;;;;;;;4465290;32;20248;-52
2021/09/07 04:05:11;;;;;;;6.10;4.22;;;;;;;;;;4465572;32;20280;-53
2021/09/07 04:07:37;;;;;;;6.85;3.40;;;;;;;;;;4466066;32;20298;-54
2021/09/07 04:10:04;;;;;;;5.35;3.47;;;;;;;;;;4465591;32;20381;-53
2021/09/07 04:12:29;;;;;;;6.72;3.70;;;;;;;;;;4465016;32;20272;-53
2021/09/07 04:14:55;;;;;;;11.15;3.78;;;;;;;;;;4464889;32;20235;-52
2021/09/07 04:17:21;;;;;;;6.12;3.72;;;;;;;;;;4465527;32;20751;-52
2021/09/07 04:19:47;;;;;;;6.03;4.15;;;;;;;;;;4464774;32;20605;-52
2021/09/07 04:22:12;;;;;;;6.53;3.67;;;;;;;;;;4464432;32;20251;-52
2021/09/07 04:24:38;;;;;;;5.62;3.40;;;;;;;;;;4465573;32;20231;-53
2021/09/07 04:27:03;;;;;;;6.57;3.92;;;;;;;;;;4465290;32;20639;-53
2021/09/07 04:29:29;;;;;;;6.53;3.30;;;;;;;;;;4465021;32;20217;-53
2021/09/07 04:31:54;;;;;;;6.18;4.00;;;;;;;;;;4465163;32;20313;-54
2021/09/07 04:34:20;;;;;;;6.32;4.03;;;;;;;;;;4449350;32;20270;-52
2021/09/07 04:36:45;;;;;;;8.20;4.18;;;;;;;;;;4449536;32;20335;-52
2021/09/07 04:39:11;;;;;;;7.97;4.30;;;;;;;;;;4463257;32;20642;-51
2021/09/07 04:41:36;;;;;;;8.27;4.78;;;;;;;;;;4464090;32;20640;-53
2021/09/07 04:44:02;;;;;;;7.40;4.32;;;;;;;;;;4464735;32;20307;-53
2021/09/07 04:46:27;;;;;;;9.30;5.20;;;;;;;;;;4464994;32;20321;-54
2021/09/07 04:48:56;;;;;;;8.95;5.82;;;;;;;;;;4463991;32;20338;-53
2021/09/07 04:51:23;;;;;;;9.35;5.62;;;;;;;;;;4464875;32;20279;-53
2021/09/07 04:53:49;;;;;;;7.32;4.75;;;;;;;;;;4463521;32;20256;-52
2021/09/07 04:56:14;;;;;;;10.38;5.28;;;;;;;;;;4465288;32;20386;-54
2021/09/07 04:58:40;;;;;;;12.30;5.55;;;;;;;;;;4464975;32;20323;-53
2021/09/07 05:01:06;;;;;;;10.88;4.95;;;;;;;;;;4464165;32;20220;-53
2021/09/07 05:03:31;;;;;;;6.37;5.12;;;;;;;;;;4465481;32;20742;-54
2021/09/07 05:05:57;;;;;;;7.97;5.12;;;;;;;;;;4465084;32;20318;-56
2021/09/07 05:08:22;;;;;;;9.25;6.05;;;;;;;;;;4464305;32;20244;-54
2021/09/07 05:10:48;;;;;;;7.82;5.37;;;;;;;;;;4465456;32;20335;-53
2021/09/07 05:13:13;;;;;;;12.90;6.72;;;;;;;;;;4465732;32;20216;-54
2021/09/07 05:15:38;;;;;;;13.98;5.97;;;;;;;;;;4465674;32;20319;-53
2021/09/07 05:18:04;;;;;;;12.02;6.15;;;;;;;;;;4465014;32;20385;-54
2021/09/07 05:20:29;;;;;;;8.10;5.45;;;;;;;;;;4464767;32;20295;-54
2021/09/07 05:22:55;;;;;;;16.58;7.35;;;;;;;;;;4463501;32;20727;-54
2021/09/07 05:25:20;;;;;;;18.00;6.90;;;;;;;;;;4463348;32;20244;-53
2021/09/07 05:27:46;;;;;;;29.20;10.35;;;;;;;;;;4463282;32;20286;-53
2021/09/07 05:30:12;;;;;;;21.23;8.23;;;;;;;;;;4464288;32;20337;-53
2021/09/07 05:32:38;;;;;;;17.05;8.25;;;;;;;;;;4462295;32;20563;-54
2021/09/07 05:35:05;;;;;;;18.15;8.98;;;;;;;;;;4464146;32;20236;-53
2021/09/07 05:37:30;;;;;;;31.83;10.25;;;;;;;;;;4464345;32;20223;-54
2021/09/07 05:39:56;;;;;;;22.50;9.45;;;;;;;;;;4465063;32;20569;-53
2021/09/07 05:42:21;;;;;;;15.15;8.48;;;;;;;;;;4464948;32;20593;-53
2021/09/07 05:44:46;;;;;;;20.33;9.13;;;;;;;;;;4464802;32;20502;-55
2021/09/07 05:47:12;;;;;;;16.95;8.13;;;;;;;;;;4464884;32;20271;-54
2021/09/07 05:49:37;;;;;;;19.67;7.40;;;;;;;;;;4464034;32;20683;-54
2021/09/07 05:52:03;;;;;;;18.50;7.07;;;;;;;;;;4464408;32;20220;-53
2021/09/07 05:54:29;;;;;;;21.27;7.62;;;;;;;;;;4464609;32;20223;-52
2021/09/07 05:56:57;;;;;;;24.52;7.35;;;;;;;;;;4458602;32;20325;-53
2021/09/07 05:59:23;;;;;;;21.27;7.43;;;;;;;;;;4457936;32;20236;-53
2021/09/07 06:01:48;;;;;;;21.58;7.85;;;;;;;;;;4461348;32;20723;-55
2021/09/07 06:04:14;;;;;;;20.20;7.70;;;;;;;;;;4460302;32;20767;-55
2021/09/07 06:06:39;;;;;;;11.15;6.07;;;;;;;;;;4459108;32;20322;-53
2021/09/07 06:09:04;;;;;;;11.48;6.50;;;;;;;;;;4453593;32;20675;-54
2021/09/07 06:11:30;;;;;;;10.75;5.62;;;;;;;;;;4459792;32;20259;-54
2021/09/07 06:13:56;;;;;;;12.27;6.00;;;;;;;;;;4455889;32;20220;-55
2021/09/07 06:16:22;;;;;;;6.12;4.78;;;;;;;;;;4462619;32;20584;-54
2021/09/07 06:18:47;;;;;;;10.63;5.35;;;;;;;;;;4463809;32;20308;-55
2021/09/07 06:21:13;;;;;;;9.90;4.97;;;;;;;;;;4463303;32;20283;-57
2021/09/07 06:23:39;;;;;;;10.23;4.50;;;;;;;;;;4448698;32;20283;-55
2021/09/07 06:26:04;;;;;;;7.25;4.62;;;;;;;;;;4461515;32;20204;-53
2021/09/07 06:28:30;;;;;;;5.22;4.30;;;;;;;;;;4453395;32;20220;-53
2021/09/07 06:30:55;;;;;;;4.22;3.65;;;;;;;;;;4460532;32;20275;-53
2021/09/07 06:33:21;;;;;;;6.55;4.43;;;;;;;;;;4452220;32;20281;-53
2021/09/07 06:35:46;;;;;;;10.35;4.35;;;;;;;;;;4455314;32;20220;-53
2021/09/07 06:38:12;;;;;;;9.25;4.82;;;;;;;;;;4457941;32;21278;-55
2021/09/07 06:40:39;;;;;;;7.12;4.43;;;;;;;;;;4464342;32;20263;-53
2021/09/07 06:43:05;;;;;;;3.97;3.42;;;;;;;;;;4451829;32;20565;-53
2021/09/07 06:45:30;;;;;;;5.95;4.53;;;;;;;;;;4460092;32;20251;-53
2021/09/07 06:47:56;;;;;;;4.82;3.72;;;;;;;;;;4455013;32;20208;-53
2021/09/07 06:50:21;;;;;;;8.25;4.37;;;;;;;;;;4463239;32;20297;-53
2021/09/07 06:52:47;;;;;;;5.15;3.78;;;;;;;;;;4464173;32;20681;-53
2021/09/07 06:55:13;;;;;;;7.40;4.10;;;;;;;;;;4463476;32;20220;-53
2021/09/07 06:57:38;;;;;;;6.05;4.30;;;;;;;;;;4454583;32;20314;-55
2021/09/07 07:00:05;;;;;;;9.98;3.97;;;;;;;;;;4452615;32;20224;-53
2021/09/07 07:02:31;;;;;;;7.30;4.03;;;;;;;;;;4453673;32;20300;-52
2021/09/07 07:04:58;;;;;;;3.80;3.10;;;;;;;;;;4445848;32;20258;-53
2021/09/07 07:07:24;;;;;;;4.47;3.72;;;;;;;;;;4447039;32;20263;-53
2021/09/07 07:09:50;;;;;;;5.18;3.87;;;;;;;;;;4447121;32;20434;-53
2021/09/07 07:12:15;;;;;;;5.62;3.42;;;;;;;;;;4451607;32;20229;-53
2021/09/07 07:14:41;;;;;;;5.10;3.95;;;;;;;;;;4459991;32;20315;-53
2021/09/07 07:17:06;;;;;;;4.82;3.62;;;;;;;;;;4460157;32;20342;-53
2021/09/07 07:19:32;;;;;;;6.75;3.95;;;;;;;;;;4447350;32;20274;-53
2021/09/07 07:21:57;;;;;;;6.25;3.22;;;;;;;;;;4456715;32;20260;-54
2021/09/07 07:24:23;;;;;;;11.98;3.50;;;;;;;;;;4455326;32;20220;-54
2021/09/07 07:26:48;;;;;;;3.97;2.60;;;;;;;;;;4448908;32;20711;-54
2021/09/07 07:29:15;;;;;;;5.40;3.20;;;;;;;;;;4455124;32;20309;-54
2021/09/07 07:31:40;;;;;;;5.85;3.20;;;;;;;;;;4461817;32;20200;-53
2021/09/07 07:34:06;;;;;;;7.62;3.28;;;;;;;;;;4449971;32;20324;-54
2021/09/07 07:36:33;;;;;;;8.20;3.40;;;;;;;;;;4449321;32;20382;-54
2021/09/07 07:39:00;;;;;;;7.60;3.58;;;;;;;;;;4457219;32;20272;-53
2021/09/07 07:41:25;;;;;;;8.75;4.65;;;;;;;;;;4454196;32;20204;-53
2021/09/07 07:43:50;;;;;;;6.80;3.15;;;;;;;;;;4447240;32;20362;-53
2021/09/07 07:46:16;;;;;;;8.85;3.03;;;;;;;;;;4460600;32;20270;-53
2021/09/07 07:48:41;;;;;;;4.97;3.72;;;;;;;;;;4449697;32;20264;-55
2021/09/07 07:51:12;;;;;;;6.00;3.30;;;;;;;;;;4461920;32;20327;-53
2021/09/07 07:53:39;;;;;;;4.82;3.55;;;;;;;;;;4462592;32;20648;-54
2021/09/07 07:56:05;;;;;;;7.72;3.50;;;;;;;;;;4453062;32;20201;-54
2021/09/07 07:58:30;;;;;;;5.12;3.78;;;;;;;;;;4461240;32;20386;-55
2021/09/07 08:00:57;;;;;;;7.28;3.80;;;;;;;;;;4465052;32;20516;-53
2021/09/07 08:03:22;;;;;;;6.05;3.30;;;;;;;;;;4456064;32;20366;-54
2021/09/07 08:05:48;;;;;;;5.37;3.67;;;;;;;;;;4463429;32;20412;-54
2021/09/07 08:08:13;;;;;;;7.95;3.85;;;;;;;;;;4464390;32;20316;-53
2021/09/07 08:10:39;;;;;;;4.93;3.87;;;;;;;;;;4464395;32;20351;-53
2021/09/07 08:13:06;;;;;;;11.90;4.53;;;;;;;;;;4457560;32;20259;-53
2021/09/07 08:15:31;;;;;;;4.00;2.87;;;;;;;;;;4453274;32;20817;-53
2021/09/07 08:17:57;;;;;;;4.65;2.70;;;;;;;;;;4464002;32;20200;-54
2021/09/07 08:20:23;;;;;;;6.93;3.05;;;;;;;;;;4463115;32;20279;-53
2021/09/07 08:22:49;;;;;;;4.05;2.60;;;;;;;;;;4459746;32;20303;-53
2021/09/07 08:25:15;;;;;;;7.75;3.65;;;;;;;;;;4459046;32;20224;-54
2021/09/07 08:27:40;;;;;;;4.32;2.85;;;;;;;;;;4459509;32;20318;-53
2021/09/07 08:30:07;;;;;;;7.43;2.55;;;;;;;;;;4463215;32;20232;-53
2021/09/07 08:32:32;;;;;;;4.30;2.95;;;;;;;;;;4459325;32;20243;-52
2021/09/07 08:34:58;;;;;;;3.42;2.70;;;;;;;;;;4455314;32;20248;-55
2021/09/07 08:37:23;;;;;;;6.43;3.03;;;;;;;;;;4459889;32;20212;-54
2021/09/07 08:39:48;;;;;;;4.62;2.40;;;;;;;;;;4453653;32;20557;-54
2021/09/07 08:42:14;;;;;;;3.58;2.78;;;;;;;;;;4456402;32;20682;-53
2021/09/07 08:44:45;;;;;;;5.80;3.35;;;;;;;;;;4454893;32;20267;-53
2021/09/07 08:47:17;;;;;;;5.53;3.40;;;;;;;;;;4463253;32;20217;-53
2021/09/07 08:49:44;;;;;;;4.85;2.97;;;;;;;;;;4454974;32;20301;-53
2021/09/07 08:52:13;;;;;;;4.00;2.95;;;;;;;;;;4463612;32;20484;-54
2021/09/07 08:54:39;;;;;;;4.22;3.15;;;;;;;;;;4453453;32;20263;-53
2021/09/07 08:57:05;;;;;;;6.60;3.42;;;;;;;;;;4464966;32;20407;-55
2021/09/07 08:59:31;;;;;;;6.60;3.78;;;;;;;;;;4464103;32;20256;-53
2021/09/07 09:01:57;;;;;;;4.30;2.90;;;;;;;;;;4454496;32;20361;-53
2021/09/07 09:04:29;;;;;;;4.37;3.10;;;;;;;;;;4458595;32;20244;-53
2021/09/07 09:06:55;;;;;;;9.52;2.80;;;;;;;;;;4453375;32;20574;-53
2021/09/07 09:09:21;;;;;;;6.25;3.60;;;;;;;;;;4459858;32;20328;-53
2021/09/07 09:11:54;;;;;;;3.47;2.90;;;;;;;;;;4456710;32;20362;-53
2021/09/07 09:14:52;;;;;;;7.07;2.75;;;;;;;;;;4460214;32;20335;-54
2021/09/07 09:17:17;;;;;;;6.15;2.97;;;;;;;;;;4449993;32;20281;-54
2021/09/07 09:19:50;;;;;;;3.35;2.58;;;;;;;;;;4448558;32;20576;-54
2021/09/07 09:22:15;;;;;;;4.45;2.47;;;;;;;;;;4446026;32;20220;-54
2021/09/07 09:24:41;;;;;;;3.58;2.58;;;;;;;;;;4449896;32;20638;-53
2021/09/07 09:27:07;;;;;;;3.55;2.15;;;;;;;;;;4442007;32;20302;-53
2021/09/07 09:29:37;;;;;;;2.65;2.45;;;;;;;;;;4461234;32;20331;-53
2021/09/07 09:32:10;;;;;;;3.33;2.22;;;;;;;;;;4451245;32;20686;-54
2021/09/07 09:34:37;;;;;;;3.17;2.25;;;;;;;;;;4450549;32;20437;-54
2021/09/07 09:37:11;;;;;;;6.37;2.62;;;;;;;;;;4458503;32;20266;-53
2021/09/07 09:39:44;;;;;;;4.03;2.47;;;;;;;;;;4463542;32;20224;-54
2021/09/07 09:42:34;;;;;;;4.15;2.40;;;;;;;;;;4450238;32;20316;-53
2021/09/07 09:45:05;;;;;;;5.85;2.33;;;;;;;;;;4462840;32;20212;-54
2021/09/07 09:47:44;;;;;;;3.20;2.55;;;;;;;;;;4454274;32;20250;-53
2021/09/07 09:50:14;;;;;;;3.05;2.28;;;;;;;;;;4461149;32;20223;-54
2021/09/07 09:52:41;;;;;;;3.87;2.42;;;;;;;;;;4454531;32;20240;-53
2021/09/07 09:55:09;;;;;;;4.53;2.05;;;;;;;;;;4458068;32;20278;-54
2021/09/07 09:57:36;;;;;;;5.97;2.50;;;;;;;;;;4453086;32;20240;-54
2021/09/07 10:00:13;;;;;;;2.83;2.45;;;;;;;;;;4454911;32;20382;-54
2021/09/07 10:02:43;;;;;;;7.55;2.35;;;;;;;;;;4449134;32;20278;-54
2021/09/07 10:05:14;;;;;;;3.65;1.90;;;;;;;;;;4459871;32;20239;-54
2021/09/07 10:07:39;;;;;;;3.25;2.10;;;;;;;;;;4460684;32;20288;-54
2021/09/07 10:10:06;;;;;;;3.83;2.03;;;;;;;;;;4461074;32;20224;-54
2021/09/07 10:12:41;;;;;;;3.22;2.00;;;;;;;;;;4450067;32;20351;-53
2021/09/07 10:23:50;;;;;;;3.40;2.03;;;;;;;;;;4462093;32;20228;-55
2021/09/07 10:26:17;;;;;;;3.12;1.73;;;;;;;;;;4460380;32;20290;-54
2021/09/07 10:28:45;;;;;;;4.75;2.50;;;;;;;;;;4462983;32;20564;-54
2021/09/07 10:31:14;;;;;;;2.78;1.80;;;;;;;;;;4452683;32;20608;-55
2021/09/07 10:33:56;;;;;;;4.45;1.95;;;;;;;;;;4447248;32;20231;-54
2021/09/07 10:36:24;;;;;;;7.47;1.77;;;;;;;;;;4450262;32;20306;-54
2021/09/07 10:38:52;;;;;;;6.45;1.70;;;;;;;;;;4454453;32;20229;-54
2021/09/07 10:41:33;;;;;;;2.78;1.83;;;;;;;;;;4453031;32;20394;-55
2021/09/07 10:44:24;;;;;;;2.78;1.80;;;;;;;;;;4460100;32;20310;-54
2021/09/07 10:46:56;;;;;;;3.55;2.20;;;;;;;;;;4454652;32;20235;-54
2021/09/07 10:49:24;;;;;;;2.72;2.03;;;;;;;;;;4461979;32;20260;-53
2021/09/07 10:52:10;;;;;;;5.87;1.65;;;;;;;;;;4455785;32;20284;-55
2021/09/07 10:55:04;;;;;;;3.28;1.60;;;;;;;;;;4449469;32;20260;-53
2021/09/07 10:57:41;;;;;;;3.60;1.77;;;;;;;;;;4455678;32;20584;-54
2021/09/07 11:00:18;;;;;;;3.17;2.15;;;;;;;;;;4449562;32;20806;-54
2021/09/07 11:02:57;;;;;;;1.80;1.52;;;;;;;;;;4460160;32;20356;-56
2021/09/07 11:05:22;;;;;;;2.30;1.50;;;;;;;;;;4461835;32;20272;-55
2021/09/07 11:07:48;;;;;;;3.67;1.83;;;;;;;;;;4461209;32;20675;-55
2021/09/07 11:10:14;;;;;;;4.40;1.48;;;;;;;;;;4461289;32;20283;-54
2021/09/07 11:12:39;;;;;;;5.03;1.87;;;;;;;;;;4455612;32;20334;-54
2021/09/07 11:15:05;;;;;;;3.12;1.50;;;;;;;;;;4459526;32;20737;-54
2021/09/07 11:17:31;;;;;;;2.03;1.50;;;;;;;;;;4459675;32;20642;-55
2021/09/07 11:20:02;;;;;;;5.32;1.58;;;;;;;;;;4460796;32;20528;-54
2021/09/07 11:22:32;;;;;;;3.45;1.55;;;;;;;;;;4453203;32;20254;-54
2021/09/07 11:25:02;;;;;;;3.50;1.77;;;;;;;;;;4460981;32;20236;-54
2021/09/07 11:27:47;;;;;;;1.95;1.42;;;;;;;;;;4456883;32;20224;-54
2021/09/07 11:30:23;;;;;;;5.43;2.03;;;;;;;;;;4453472;32;20270;-55
2021/09/07 11:32:49;;;;;;;3.60;1.60;;;;;;;;;;4451952;32;20332;-55
2021/09/07 11:35:14;;;;;;;2.85;1.87;;;;;;;;;;4457555;32;20307;-55
2021/09/07 11:37:40;;;;;;;4.78;1.20;;;;;;;;;;4459449;32;20358;-54
2021/09/07 11:40:12;;;;;;;1.67;1.10;;;;;;;;;;4458952;32;20952;-55
2021/09/07 11:42:43;;;;;;;2.33;1.62;;;;;;;;;;4456145;32;20684;-55
2021/09/07 11:45:08;;;;;;;3.05;1.37;;;;;;;;;;4455611;32;20262;-54
2021/09/07 11:47:34;;;;;;;3.35;1.60;;;;;;;;;;4456796;32;20341;-54
2021/09/07 11:50:00;;;;;;;2.83;1.65;;;;;;;;;;4455357;32;20420;-54
2021/09/07 11:52:26;;;;;;;5.72;1.67;;;;;;;;;;4454096;32;20363;-54
2021/09/07 11:54:51;;;;;;;1.62;1.23;;;;;;;;;;4450715;32;20743;-55
2021/09/07 11:57:17;;;;;;;2.90;1.30;;;;;;;;;;4460404;32;20306;-57
2021/09/07 11:59:58;;;;;;;4.05;2.08;;;;;;;;;;4454594;32;20243;-55
2021/09/07 12:02:27;;;;;;;3.47;1.70;;;;;;;;;;4462002;32;20307;-55
2021/09/07 12:04:59;;;;;;;3.62;1.83;;;;;;;;;;4457237;32;20332;-55
2021/09/07 12:07:25;;;;;;;2.80;1.48;;;;;;;;;;4453989;32;20246;-54
2021/09/07 12:09:50;;;;;;;2.85;1.55;;;;;;;;;;4460302;32;20219;-54
2021/09/07 12:12:16;;;;;;;5.30;2.08;;;;;;;;;;4455417;32;20706;-57
2021/09/07 12:14:44;;;;;;;2.03;1.55;;;;;;;;;;4456420;32;20319;-54
2021/09/07 12:17:15;;;;;;;2.15;1.67;;;;;;;;;;4456449;32;20208;-55
2021/09/07 12:19:43;;;;;;;5.35;2.12;;;;;;;;;;4462516;32;20255;-54
2021/09/07 12:22:14;;;;;;;3.08;1.65;;;;;;;;;;4455427;32;20751;-55
2021/09/07 12:24:43;;;;;;;2.75;1.77;;;;;;;;;;4458358;32;20248;-55
2021/09/07 12:27:23;;;;;;;2.70;1.73;;;;;;;;;;4460451;32;20208;-55
2021/09/07 12:30:11;;;;;;;2.70;1.67;;;;;;;;;;4462390;32;20576;-55
2021/09/07 12:32:44;;;;;;;4.43;1.70;;;;;;;;;;4455724;32;20232;-55
2021/09/07 12:35:10;;;;;;;2.58;1.75;;;;;;;;;;4464193;32;20253;-54
2021/09/07 12:37:35;;;;;;;2.58;1.67;;;;;;;;;;4458828;32;20276;-54
2021/09/07 12:40:01;;;;;;;2.55;1.87;;;;;;;;;;4460886;32;20299;-54
2021/09/07 12:42:26;;;;;;;3.72;1.85;;;;;;;;;;4451745;32;20279;-54
2021/09/07 12:44:51;;;;;;;2.17;1.15;;;;;;;;;;4462302;32;20342;-54
2021/09/07 12:47:17;;;;;;;3.37;1.85;;;;;;;;;;4461293;32;20321;-54
2021/09/07 12:49:42;;;;;;;3.72;1.75;;;;;;;;;;4464721;32;20254;-54
2021/09/07 12:52:08;;;;;;;2.95;1.58;;;;;;;;;;4464279;32;20655;-55
2021/09/07 12:54:33;;;;;;;1.83;1.33;;;;;;;;;;4456112;32;20730;-55
2021/09/07 12:56:59;;;;;;;8.95;1.60;;;;;;;;;;4464207;32;20675;-55
2021/09/07 12:59:24;;;;;;;2.55;1.33;;;;;;;;;;4462933;32;20278;-54
2021/09/07 13:01:49;;;;;;;2.40;1.30;;;;;;;;;;4452885;32;20304;-54
2021/09/07 13:04:15;;;;;;;5.57;1.17;;;;;;;;;;4462660;32;20273;-55
2021/09/07 13:06:40;;;;;;;3.60;1.45;;;;;;;;;;4450783;32;20662;-55
2021/09/07 13:09:06;;;;;;;3.15;1.52;;;;;;;;;;4452075;32;20278;-54
2021/09/07 13:11:31;;;;;;;3.42;1.35;;;;;;;;;;4457749;32;20302;-55
2021/09/07 13:13:57;;;;;;;6.55;1.17;;;;;;;;;;4464565;32;20224;-56
2021/09/07 13:16:22;;;;;;;6.40;1.37;;;;;;;;;;4453811;32;20631;-55
2021/09/07 13:18:50;;;;;;;3.50;1.27;;;;;;;;;;4459184;32;20691;-55
2021/09/07 13:21:17;;;;;;;5.10;1.50;;;;;;;;;;4452573;32;20735;-55
2021/09/07 13:23:43;;;;;;;6.10;1.37;;;;;;;;;;4462371;32;20251;-55
2021/09/07 13:26:09;;;;;;;1.83;1.12;;;;;;;;;;4456705;32;20291;-55
2021/09/07 13:28:36;;;;;;;2.53;1.30;;;;;;;;;;4463733;32;20290;-54
2021/09/07 13:31:01;;;;;;;3.80;1.12;;;;;;;;;;4452259;32;20387;-54
2021/09/07 13:33:27;;;;;;;2.97;1.40;;;;;;;;;;4460556;32;20323;-54
2021/09/07 13:35:53;;;;;;;1.83;1.23;;;;;;;;;;4452804;32;20271;-56
2021/09/07 13:38:18;;;;;;;1.45;0.98;;;;;;;;;;4453496;32;20228;-55
2021/09/07 13:40:44;;;;;;;3.30;1.75;;;;;;;;;;4460480;32;20773;-54
2021/09/07 13:43:09;;;;;;;1.67;1.10;;;;;;;;;;4457815;32;20341;-54
2021/09/07 13:45:35;;;;;;;5.10;1.10;;;;;;;;;;4456292;32;20307;-57
2021/09/07 13:48:01;;;;;;;2.75;1.33;;;;;;;;;;4455339;32;20315;-54
2021/09/07 13:50:27;;;;;;;2.60;1.42;;;;;;;;;;4455512;32;20201;-54
2021/09/07 13:52:52;;;;;;;6.37;1.87;;;;;;;;;;4451186;32;20298;-55
2021/09/07 13:55:18;;;;;;;3.85;1.60;;;;;;;;;;4456083;32;20254;-54
2021/09/07 13:57:43;;;;;;;4.47;1.50;;;;;;;;;;4451679;32;20280;-54
2021/09/07 14:00:10;;;;;;;4.03;1.80;;;;;;;;;;4460034;32;20259;-55
2021/09/07 14:02:36;;;;;;;1.77;1.25;;;;;;;;;;4455341;32;20588;-55
2021/09/07 14:05:05;;;;;;;3.72;1.58;;;;;;;;;;4454528;32;20735;-56
2021/09/07 14:07:31;;;;;;;3.50;1.75;;;;;;;;;;4456011;32;20546;-56
2021/09/07 14:09:56;;;;;;;3.62;1.55;;;;;;;;;;4450250;32;20295;-55
2021/09/07 14:12:22;;;;;;;2.60;1.27;;;;;;;;;;4462211;32;20295;-55
2021/09/07 14:14:47;;;;;;;6.90;1.67;;;;;;;;;;4458542;32;20243;-56
2021/09/07 14:17:13;;;;;;;1.85;1.02;;;;;;;;;;4447875;32;20310;-55
2021/09/07 14:19:39;;;;;;;2.35;1.52;;;;;;;;;;4457916;32;20244;-55
2021/09/07 14:22:04;;;;;;;2.60;1.27;;;;;;;;;;4450646;32;20275;-55
2021/09/07 14:24:30;;;;;;;5.25;1.50;;;;;;;;;;4463003;32;20242;-54
2021/09/07 14:26:55;;;;;;;4.25;1.45;;;;;;;;;;4463667;32;20316;-55
2021/09/07 14:29:21;;;;;;;5.95;1.70;;;;;;;;;;4455526;32;20343;-54
2021/09/07 14:31:47;;;;;;;3.37;1.62;;;;;;;;;;4458782;32;20318;-55
2021/09/07 14:34:12;;;;;;;3.55;2.00;;;;;;;;;;4462049;32;20239;-54
2021/09/07 14:36:38;;;;;;;3.40;1.70;;;;;;;;;;4463667;32;20660;-54
2021/09/07 14:39:03;;;;;;;3.22;1.35;;;;;;;;;;4456048;32;20495;-54
2021/09/07 14:41:29;;;;;;;3.05;1.65;;;;;;;;;;4457197;32;20252;-54
2021/09/07 14:43:55;;;;;;;2.35;1.45;;;;;;;;;;4459405;32;20223;-55
2021/09/07 14:46:21;;;;;;;2.20;1.33;;;;;;;;;;4454892;32;20196;-55
2021/09/07 14:48:47;;;;;;;3.03;1.42;;;;;;;;;;4459543;32;20236;-55